aviador You're here:

ZYTX Decoded Metar

SHENYANG/TAOKIAN in CHINA
Report Time2017-06-25 13:30:00
UTC Time2017-06-25 13:43:06
Flight Rules mvfr MVFR
Wind290° at 4 kt
W.Decomp.*RWY 24: 2.1 kt HW 3.4 kt RCW
W.Rank290° ranks 30
Current wind is below 290° avg. (7.4)
Visibility5000 m
Phenomena:Mist
Clouds:Few CB 033 Hf
Expected CloudBase > 400 ft AGL from Temp-Dew spread
CeilingNone
Temp21°C (ISA +6)
Dew Point20°C (94% RH)
QNH1004 hPa
Density Alt1,457 ft
Elevation115 ft
Report Wrong Elevation
Raw Report
ZYTX 251330Z 29002MPS 220V360 5000 BR FEW033CB 21/20 Q1004
NOSIG=

Extra information for ZYTX:More info

Metar Taf Metar & Taf Last 4 Metars F.Rules Stats Wind Profile Meteogram Temp Stats Airport Information Weather charts Add Link Nearby VenuesMetar ALERT Operation Metar Decoded Social comments